sensor_id;sensor_type;location;lat;lon;timestamp;temperature;humidity
82243;DHT22;71844;51.528;4.442;2024-02-21T00:01:54;9.40;83.00
82243;DHT22;71844;51.528;4.442;2024-02-21T00:04:21;9.40;82.70
82243;DHT22;71844;51.528;4.442;2024-02-21T00:06:49;9.30;82.70
82243;DHT22;71844;51.528;4.442;2024-02-21T00:09:15;9.30;82.60
82243;DHT22;71844;51.528;4.442;2024-02-21T00:11:42;9.30;82.50
82243;DHT22;71844;51.528;4.442;2024-02-21T00:14:09;9.30;82.50
82243;DHT22;71844;51.528;4.442;2024-02-21T00:16:36;9.20;82.60
82243;DHT22;71844;51.528;4.442;2024-02-21T00:19:03;9.20;82.70
82243;DHT22;71844;51.528;4.442;2024-02-21T00:21:30;9.10;82.50
82243;DHT22;71844;51.528;4.442;2024-02-21T00:23:57;9.10;82.70
82243;DHT22;71844;51.528;4.442;2024-02-21T00:26:24;9.00;82.80
82243;DHT22;71844;51.528;4.442;2024-02-21T00:28:53;9.00;82.80
82243;DHT22;71844;51.528;4.442;2024-02-21T00:31:20;9.00;82.90
82243;DHT22;71844;51.528;4.442;2024-02-21T00:33:47;9.00;83.00
82243;DHT22;71844;51.528;4.442;2024-02-21T00:36:14;9.00;83.00
82243;DHT22;71844;51.528;4.442;2024-02-21T00:38:42;9.00;83.20
82243;DHT22;71844;51.528;4.442;2024-02-21T00:41:08;9.00;83.10
82243;DHT22;71844;51.528;4.442;2024-02-21T00:43:35;9.00;83.10
82243;DHT22;71844;51.528;4.442;2024-02-21T00:46:03;9.00;83.00
82243;DHT22;71844;51.528;4.442;2024-02-21T00:48:32;9.00;83.10
82243;DHT22;71844;51.528;4.442;2024-02-21T00:50:59;9.00;83.10
82243;DHT22;71844;51.528;4.442;2024-02-21T00:53:26;9.00;83.00
82243;DHT22;71844;51.528;4.442;2024-02-21T00:55:53;9.00;83.00
82243;DHT22;71844;51.528;4.442;2024-02-21T00:58:20;9.00;83.10
82243;DHT22;71844;51.528;4.442;2024-02-21T01:00:47;9.00;83.00
82243;DHT22;71844;51.528;4.442;2024-02-21T01:03:13;9.00;82.90
82243;DHT22;71844;51.528;4.442;2024-02-21T01:05:40;9.00;82.70
82243;DHT22;71844;51.528;4.442;2024-02-21T01:08:07;9.00;82.70
82243;DHT22;71844;51.528;4.442;2024-02-21T01:10:34;8.90;82.70
82243;DHT22;71844;51.528;4.442;2024-02-21T01:13:01;8.90;82.70
82243;DHT22;71844;51.528;4.442;2024-02-21T01:15:28;8.90;82.70
82243;DHT22;71844;51.528;4.442;2024-02-21T01:17:55;8.90;82.60
82243;DHT22;71844;51.528;4.442;2024-02-21T01:20:22;8.90;82.70
82243;DHT22;71844;51.528;4.442;2024-02-21T01:22:49;8.80;82.60
82243;DHT22;71844;51.528;4.442;2024-02-21T01:25:16;8.80;82.70
82243;DHT22;71844;51.528;4.442;2024-02-21T01:27:44;8.80;82.90
82243;DHT22;71844;51.528;4.442;2024-02-21T01:30:11;8.80;83.00
82243;DHT22;71844;51.528;4.442;2024-02-21T01:32:38;8.80;83.00
82243;DHT22;71844;51.528;4.442;2024-02-21T01:35:05;8.90;83.10
82243;DHT22;71844;51.528;4.442;2024-02-21T01:37:36;8.90;83.00
82243;DHT22;71844;51.528;4.442;2024-02-21T01:40:03;8.90;83.00
82243;DHT22;71844;51.528;4.442;2024-02-21T01:42:30;8.90;82.90
82243;DHT22;71844;51.528;4.442;2024-02-21T01:44:58;9.00;82.80
82243;DHT22;71844;51.528;4.442;2024-02-21T01:47:25;9.00;82.80
82243;DHT22;71844;51.528;4.442;2024-02-21T01:49:52;8.90;82.80
82243;DHT22;71844;51.528;4.442;2024-02-21T01:52:19;8.90;82.80
82243;DHT22;71844;51.528;4.442;2024-02-21T01:54:47;8.90;82.80
82243;DHT22;71844;51.528;4.442;2024-02-21T01:57:14;9.00;82.80
82243;DHT22;71844;51.528;4.442;2024-02-21T01:59:42;8.90;82.70
82243;DHT22;71844;51.528;4.442;2024-02-21T02:07:29;8.90;82.70
82243;DHT22;71844;51.528;4.442;2024-02-21T02:09:56;8.90;82.80
82243;DHT22;71844;51.528;4.442;2024-02-21T02:12:23;8.90;82.90
82243;DHT22;71844;51.528;4.442;2024-02-21T02:15:01;8.90;82.90
82243;DHT22;71844;51.528;4.442;2024-02-21T02:17:28;8.90;82.90
82243;DHT22;71844;51.528;4.442;2024-02-21T02:19:55;8.90;82.90
82243;DHT22;71844;51.528;4.442;2024-02-21T02:22:28;8.90;83.00
82243;DHT22;71844;51.528;4.442;2024-02-21T02:24:56;8.90;83.00
82243;DHT22;71844;51.528;4.442;2024-02-21T02:27:24;8.90;83.00
82243;DHT22;71844;51.528;4.442;2024-02-21T02:29:51;8.90;83.00
82243;DHT22;71844;51.528;4.442;2024-02-21T02:32:18;8.90;83.00
82243;DHT22;71844;51.528;4.442;2024-02-21T02:34:45;8.90;83.10
82243;DHT22;71844;51.528;4.442;2024-02-21T02:37:12;8.90;83.00
82243;DHT22;71844;51.528;4.442;2024-02-21T02:39:39;8.90;83.10
82243;DHT22;71844;51.528;4.442;2024-02-21T02:42:06;8.90;83.20
82243;DHT22;71844;51.528;4.442;2024-02-21T02:44:33;8.90;83.10
82243;DHT22;71844;51.528;4.442;2024-02-21T02:47:00;8.90;83.30
82243;DHT22;71844;51.528;4.442;2024-02-21T02:49:27;8.90;83.40
82243;DHT22;71844;51.528;4.442;2024-02-21T02:51:54;8.90;83.50
82243;DHT22;71844;51.528;4.442;2024-02-21T02:54:21;8.90;83.60
82243;DHT22;71844;51.528;4.442;2024-02-21T02:56:49;8.90;83.90
82243;DHT22;71844;51.528;4.442;2024-02-21T02:59:16;8.90;83.60
82243;DHT22;71844;51.528;4.442;2024-02-21T03:01:43;8.90;83.80
82243;DHT22;71844;51.528;4.442;2024-02-21T03:04:10;8.90;83.90
82243;DHT22;71844;51.528;4.442;2024-02-21T03:06:37;8.90;83.70
82243;DHT22;71844;51.528;4.442;2024-02-21T03:09:04;8.90;83.80
82243;DHT22;71844;51.528;4.442;2024-02-21T03:11:35;8.90;83.80
82243;DHT22;71844;51.528;4.442;2024-02-21T03:14:04;8.90;83.80
82243;DHT22;71844;51.528;4.442;2024-02-21T03:16:31;8.80;83.80
82243;DHT22;71844;51.528;4.442;2024-02-21T03:18:58;8.80;84.00
82243;DHT22;71844;51.528;4.442;2024-02-21T03:21:25;8.80;83.80
82243;DHT22;71844;51.528;4.442;2024-02-21T03:23:52;8.80;83.80
82243;DHT22;71844;51.528;4.442;2024-02-21T03:26:19;8.80;83.80
82243;DHT22;71844;51.528;4.442;2024-02-21T03:28:46;8.70;83.80
82243;DHT22;71844;51.528;4.442;2024-02-21T03:31:13;8.70;84.00
82243;DHT22;71844;51.528;4.442;2024-02-21T03:33:42;8.70;84.10
82243;DHT22;71844;51.528;4.442;2024-02-21T03:36:14;8.70;84.30
82243;DHT22;71844;51.528;4.442;2024-02-21T03:38:44;8.70;84.40
82243;DHT22;71844;51.528;4.442;2024-02-21T03:41:11;8.70;84.50
82243;DHT22;71844;51.528;4.442;2024-02-21T03:43:38;8.80;84.40
82243;DHT22;71844;51.528;4.442;2024-02-21T03:46:06;8.80;84.50
82243;DHT22;71844;51.528;4.442;2024-02-21T03:48:33;8.80;84.40
82243;DHT22;71844;51.528;4.442;2024-02-21T03:51:00;8.80;84.50
82243;DHT22;71844;51.528;4.442;2024-02-21T03:53:27;8.80;84.40
82243;DHT22;71844;51.528;4.442;2024-02-21T03:55:55;8.80;84.50
82243;DHT22;71844;51.528;4.442;2024-02-21T03:58:22;8.80;84.60
82243;DHT22;71844;51.528;4.442;2024-02-21T04:00:49;8.80;84.50
82243;DHT22;71844;51.528;4.442;2024-02-21T04:03:16;8.80;84.50
82243;DHT22;71844;51.528;4.442;2024-02-21T04:05:43;8.80;84.50
82243;DHT22;71844;51.528;4.442;2024-02-21T04:08:10;8.90;84.40
82243;DHT22;71844;51.528;4.442;2024-02-21T04:10:37;8.90;84.30
82243;DHT22;71844;51.528;4.442;2024-02-21T04:13:06;8.90;84.40
82243;DHT22;71844;51.528;4.442;2024-02-21T04:15:33;8.90;84.40
82243;DHT22;71844;51.528;4.442;2024-02-21T04:18:00;8.90;84.30
82243;DHT22;71844;51.528;4.442;2024-02-21T04:20:28;8.90;84.40
82243;DHT22;71844;51.528;4.442;2024-02-21T04:22:55;8.90;84.30
82243;DHT22;71844;51.528;4.442;2024-02-21T04:25:21;8.90;84.30
82243;DHT22;71844;51.528;4.442;2024-02-21T04:27:50;8.90;84.30
82243;DHT22;71844;51.528;4.442;2024-02-21T04:30:17;8.90;84.40
82243;DHT22;71844;51.528;4.442;2024-02-21T04:32:44;8.90;84.40
82243;DHT22;71844;51.528;4.442;2024-02-21T04:35:11;8.90;84.40
82243;DHT22;71844;51.528;4.442;2024-02-21T04:37:38;8.80;84.50
82243;DHT22;71844;51.528;4.442;2024-02-21T04:40:05;8.80;84.30
82243;DHT22;71844;51.528;4.442;2024-02-21T04:42:32;8.90;84.30
82243;DHT22;71844;51.528;4.442;2024-02-21T04:44:59;8.80;84.30
82243;DHT22;71844;51.528;4.442;2024-02-21T04:47:26;8.80;84.40
82243;DHT22;71844;51.528;4.442;2024-02-21T04:49:53;8.80;84.30
82243;DHT22;71844;51.528;4.442;2024-02-21T04:52:20;8.80;84.40
82243;DHT22;71844;51.528;4.442;2024-02-21T04:54:47;8.80;84.40
82243;DHT22;71844;51.528;4.442;2024-02-21T04:57:14;8.80;84.40
82243;DHT22;71844;51.528;4.442;2024-02-21T04:59:44;8.70;84.40
82243;DHT22;71844;51.528;4.442;2024-02-21T05:02:12;8.80;84.60
82243;DHT22;71844;51.528;4.442;2024-02-21T05:04:42;8.80;84.50
82243;DHT22;71844;51.528;4.442;2024-02-21T05:07:10;8.80;84.50
82243;DHT22;71844;51.528;4.442;2024-02-21T05:09:38;8.70;84.60
82243;DHT22;71844;51.528;4.442;2024-02-21T05:12:05;8.80;84.60
82243;DHT22;71844;51.528;4.442;2024-02-21T05:14:32;8.80;84.60
82243;DHT22;71844;51.528;4.442;2024-02-21T05:17:03;8.80;84.60
82243;DHT22;71844;51.528;4.442;2024-02-21T05:19:30;8.80;84.60
82243;DHT22;71844;51.528;4.442;2024-02-21T05:21:58;8.80;84.50
82243;DHT22;71844;51.528;4.442;2024-02-21T05:24:25;8.80;84.60
82243;DHT22;71844;51.528;4.442;2024-02-21T05:26:53;8.80;84.60
82243;DHT22;71844;51.528;4.442;2024-02-21T05:29:20;8.80;84.50
82243;DHT22;71844;51.528;4.442;2024-02-21T05:34:18;8.90;84.50
82243;DHT22;71844;51.528;4.442;2024-02-21T05:36:45;8.80;84.40
82243;DHT22;71844;51.528;4.442;2024-02-21T05:39:13;8.80;84.50
82243;DHT22;71844;51.528;4.442;2024-02-21T05:41:41;8.80;84.40
82243;DHT22;71844;51.528;4.442;2024-02-21T05:44:08;8.80;84.50
82243;DHT22;71844;51.528;4.442;2024-02-21T05:46:35;8.80;84.50
82243;DHT22;71844;51.528;4.442;2024-02-21T05:49:01;8.80;84.50
82243;DHT22;71844;51.528;4.442;2024-02-21T05:51:32;8.80;84.50
82243;DHT22;71844;51.528;4.442;2024-02-21T05:54:00;8.80;84.40
82243;DHT22;71844;51.528;4.442;2024-02-21T05:56:26;8.80;84.30
82243;DHT22;71844;51.528;4.442;2024-02-21T05:58:53;8.80;84.40
82243;DHT22;71844;51.528;4.442;2024-02-21T06:01:20;8.80;84.30
82243;DHT22;71844;51.528;4.442;2024-02-21T06:03:52;8.80;84.20
82243;DHT22;71844;51.528;4.442;2024-02-21T06:06:19;8.70;84.10
82243;DHT22;71844;51.528;4.442;2024-02-21T06:08:47;8.70;84.10
82243;DHT22;71844;51.528;4.442;2024-02-21T06:11:14;8.70;84.20
82243;DHT22;71844;51.528;4.442;2024-02-21T06:13:42;8.60;84.30
82243;DHT22;71844;51.528;4.442;2024-02-21T06:16:09;8.60;84.20
82243;DHT22;71844;51.528;4.442;2024-02-21T06:18:36;8.60;84.30
82243;DHT22;71844;51.528;4.442;2024-02-21T06:21:05;8.50;84.60
82243;DHT22;71844;51.528;4.442;2024-02-21T06:23:32;8.50;84.80
82243;DHT22;71844;51.528;4.442;2024-02-21T06:25:59;8.50;84.80
82243;DHT22;71844;51.528;4.442;2024-02-21T06:28:26;8.50;84.80
82243;DHT22;71844;51.528;4.442;2024-02-21T06:30:53;8.60;84.80
82243;DHT22;71844;51.528;4.442;2024-02-21T06:33:20;8.60;84.80
82243;DHT22;71844;51.528;4.442;2024-02-21T06:35:51;8.60;84.80
82243;DHT22;71844;51.528;4.442;2024-02-21T06:38:19;8.60;84.90
82243;DHT22;71844;51.528;4.442;2024-02-21T06:40:47;8.60;85.00
82243;DHT22;71844;51.528;4.442;2024-02-21T06:43:18;8.60;85.00
82243;DHT22;71844;51.528;4.442;2024-02-21T06:45:48;8.60;84.90
82243;DHT22;71844;51.528;4.442;2024-02-21T06:48:18;8.60;84.80
82243;DHT22;71844;51.528;4.442;2024-02-21T06:50:46;8.60;84.80
82243;DHT22;71844;51.528;4.442;2024-02-21T06:53:13;8.60;84.80
82243;DHT22;71844;51.528;4.442;2024-02-21T06:55:39;8.60;84.80
82243;DHT22;71844;51.528;4.442;2024-02-21T06:58:09;8.60;84.90
82243;DHT22;71844;51.528;4.442;2024-02-21T07:00:39;8.60;84.90
82243;DHT22;71844;51.528;4.442;2024-02-21T07:03:07;8.50;84.90
82243;DHT22;71844;51.528;4.442;2024-02-21T07:05:34;8.50;84.90
82243;DHT22;71844;51.528;4.442;2024-02-21T07:08:01;8.50;84.90
82243;DHT22;71844;51.528;4.442;2024-02-21T07:10:28;8.60;84.90
82243;DHT22;71844;51.528;4.442;2024-02-21T07:12:55;8.50;84.90
82243;DHT22;71844;51.528;4.442;2024-02-21T07:15:22;8.50;84.90
82243;DHT22;71844;51.528;4.442;2024-02-21T07:17:56;8.50;84.90
82243;DHT22;71844;51.528;4.442;2024-02-21T07:20:23;8.50;85.00
82243;DHT22;71844;51.528;4.442;2024-02-21T07:22:50;8.50;85.00
82243;DHT22;71844;51.528;4.442;2024-02-21T07:25:17;8.50;84.90
82243;DHT22;71844;51.528;4.442;2024-02-21T07:27:44;8.50;85.00
82243;DHT22;71844;51.528;4.442;2024-02-21T07:30:12;8.50;85.00
82243;DHT22;71844;51.528;4.442;2024-02-21T07:32:43;8.50;85.00
82243;DHT22;71844;51.528;4.442;2024-02-21T07:35:10;8.50;85.00
82243;DHT22;71844;51.528;4.442;2024-02-21T07:37:38;8.50;85.00
82243;DHT22;71844;51.528;4.442;2024-02-21T07:40:16;8.50;85.20
82243;DHT22;71844;51.528;4.442;2024-02-21T07:42:43;8.50;85.10
82243;DHT22;71844;51.528;4.442;2024-02-21T07:45:15;8.50;85.20
82243;DHT22;71844;51.528;4.442;2024-02-21T07:47:42;8.50;85.20
82243;DHT22;71844;51.528;4.442;2024-02-21T07:50:09;8.50;85.20
82243;DHT22;71844;51.528;4.442;2024-02-21T07:52:36;8.50;85.20
82243;DHT22;71844;51.528;4.442;2024-02-21T07:55:04;8.50;85.30
82243;DHT22;71844;51.528;4.442;2024-02-21T07:57:31;8.50;85.30
82243;DHT22;71844;51.528;4.442;2024-02-21T07:59:57;8.50;85.40
82243;DHT22;71844;51.528;4.442;2024-02-21T08:02:25;8.50;85.30
82243;DHT22;71844;51.528;4.442;2024-02-21T08:04:52;8.50;85.30
82243;DHT22;71844;51.528;4.442;2024-02-21T08:07:19;8.60;85.30
82243;DHT22;71844;51.528;4.442;2024-02-21T08:09:46;8.60;85.30
82243;DHT22;71844;51.528;4.442;2024-02-21T08:12:13;8.60;85.30
82243;DHT22;71844;51.528;4.442;2024-02-21T08:14:40;8.60;85.20
82243;DHT22;71844;51.528;4.442;2024-02-21T08:17:07;8.70;85.10
82243;DHT22;71844;51.528;4.442;2024-02-21T08:19:34;8.70;85.10
82243;DHT22;71844;51.528;4.442;2024-02-21T08:22:01;8.70;85.10
82243;DHT22;71844;51.528;4.442;2024-02-21T08:24:27;8.70;85.00
82243;DHT22;71844;51.528;4.442;2024-02-21T08:26:54;8.80;85.10
82243;DHT22;71844;51.528;4.442;2024-02-21T08:29:23;8.80;85.10
82243;DHT22;71844;51.528;4.442;2024-02-21T08:31:50;8.80;84.90
82243;DHT22;71844;51.528;4.442;2024-02-21T08:34:17;8.90;84.90
82243;DHT22;71844;51.528;4.442;2024-02-21T08:36:48;8.90;84.70
82243;DHT22;71844;51.528;4.442;2024-02-21T08:39:14;8.90;84.60
82243;DHT22;71844;51.528;4.442;2024-02-21T08:41:43;8.90;84.70
82243;DHT22;71844;51.528;4.442;2024-02-21T08:44:23;8.90;84.60
82243;DHT22;71844;51.528;4.442;2024-02-21T08:46:53;9.00;84.50
82243;DHT22;71844;51.528;4.442;2024-02-21T08:49:20;9.00;84.50
82243;DHT22;71844;51.528;4.442;2024-02-21T08:51:47;9.00;84.40
82243;DHT22;71844;51.528;4.442;2024-02-21T08:54:15;9.00;84.30
82243;DHT22;71844;51.528;4.442;2024-02-21T08:56:41;9.10;84.20
82243;DHT22;71844;51.528;4.442;2024-02-21T08:59:08;9.10;84.20
82243;DHT22;71844;51.528;4.442;2024-02-21T09:01:35;9.10;84.10
82243;DHT22;71844;51.528;4.442;2024-02-21T09:04:03;9.10;84.10
82243;DHT22;71844;51.528;4.442;2024-02-21T09:06:30;9.20;84.00
82243;DHT22;71844;51.528;4.442;2024-02-21T09:08:59;9.20;84.10
82243;DHT22;71844;51.528;4.442;2024-02-21T09:11:26;9.30;84.00
82243;DHT22;71844;51.528;4.442;2024-02-21T09:13:55;9.30;83.80
82243;DHT22;71844;51.528;4.442;2024-02-21T09:16:22;9.30;83.70
82243;DHT22;71844;51.528;4.442;2024-02-21T09:18:50;9.40;83.60
82243;DHT22;71844;51.528;4.442;2024-02-21T09:21:18;9.40;83.70
82243;DHT22;71844;51.528;4.442;2024-02-21T09:23:45;9.40;83.50
82243;DHT22;71844;51.528;4.442;2024-02-21T09:26:12;9.40;83.50
82243;DHT22;71844;51.528;4.442;2024-02-21T09:28:43;9.40;83.60
82243;DHT22;71844;51.528;4.442;2024-02-21T09:31:16;9.50;83.50
82243;DHT22;71844;51.528;4.442;2024-02-21T09:33:43;9.50;83.50
82243;DHT22;71844;51.528;4.442;2024-02-21T09:36:10;9.50;83.40
82243;DHT22;71844;51.528;4.442;2024-02-21T09:38:40;9.50;83.50
82243;DHT22;71844;51.528;4.442;2024-02-21T09:41:17;9.60;83.30
82243;DHT22;71844;51.528;4.442;2024-02-21T09:43:51;9.60;83.20
82243;DHT22;71844;51.528;4.442;2024-02-21T09:46:56;9.60;83.00
82243;DHT22;71844;51.528;4.442;2024-02-21T09:49:33;9.60;83.00
82243;DHT22;71844;51.528;4.442;2024-02-21T09:52:02;9.70;82.80
82243;DHT22;71844;51.528;4.442;2024-02-21T09:54:29;9.70;82.90
82243;DHT22;71844;51.528;4.442;2024-02-21T09:56:57;9.70;82.60
82243;DHT22;71844;51.528;4.442;2024-02-21T09:59:25;9.70;82.70
82243;DHT22;71844;51.528;4.442;2024-02-21T10:01:53;9.70;82.80
82243;DHT22;71844;51.528;4.442;2024-02-21T10:04:20;9.80;82.70
82243;DHT22;71844;51.528;4.442;2024-02-21T10:06:50;9.80;82.40
82243;DHT22;71844;51.528;4.442;2024-02-21T10:09:24;9.80;82.50
82243;DHT22;71844;51.528;4.442;2024-02-21T10:11:55;9.80;82.70
82243;DHT22;71844;51.528;4.442;2024-02-21T10:14:22;9.90;82.50
82243;DHT22;71844;51.528;4.442;2024-02-21T10:16:57;9.90;82.30
82243;DHT22;71844;51.528;4.442;2024-02-21T10:19:27;9.90;82.00
82243;DHT22;71844;51.528;4.442;2024-02-21T10:24:30;9.90;81.70
82243;DHT22;71844;51.528;4.442;2024-02-21T10:27:07;9.90;81.90
82243;DHT22;71844;51.528;4.442;2024-02-21T10:29:35;9.90;81.80
82243;DHT22;71844;51.528;4.442;2024-02-21T10:34:34;9.90;81.10
82243;DHT22;71844;51.528;4.442;2024-02-21T10:37:05;9.80;81.10
82243;DHT22;71844;51.528;4.442;2024-02-21T10:39:34;9.80;80.90
82243;DHT22;71844;51.528;4.442;2024-02-21T10:42:02;9.80;81.20
82243;DHT22;71844;51.528;4.442;2024-02-21T10:44:33;9.80;81.00
82243;DHT22;71844;51.528;4.442;2024-02-21T10:47:05;9.80;81.10
82243;DHT22;71844;51.528;4.442;2024-02-21T10:49:39;9.80;81.40
82243;DHT22;71844;51.528;4.442;2024-02-21T10:55:03;10.10;81.40
82243;DHT22;71844;51.528;4.442;2024-02-21T10:57:34;10.20;80.50
82243;DHT22;71844;51.528;4.442;2024-02-21T11:00:04;10.20;80.40
82243;DHT22;71844;51.528;4.442;2024-02-21T11:02:35;10.20;80.20
82243;DHT22;71844;51.528;4.442;2024-02-21T11:05:04;10.10;79.80
82243;DHT22;71844;51.528;4.442;2024-02-21T11:07:32;10.10;80.00
82243;DHT22;71844;51.528;4.442;2024-02-21T11:10:02;10.00;80.10
82243;DHT22;71844;51.528;4.442;2024-02-21T11:12:32;10.00;80.40
82243;DHT22;71844;51.528;4.442;2024-02-21T11:15:05;10.10;80.30
82243;DHT22;71844;51.528;4.442;2024-02-21T11:17:32;10.10;80.20
82243;DHT22;71844;51.528;4.442;2024-02-21T11:20:13;10.10;80.20
82243;DHT22;71844;51.528;4.442;2024-02-21T11:22:44;10.20;79.90
82243;DHT22;71844;51.528;4.442;2024-02-21T11:25:11;10.10;79.90
82243;DHT22;71844;51.528;4.442;2024-02-21T11:27:38;10.10;79.80
82243;DHT22;71844;51.528;4.442;2024-02-21T11:30:06;10.10;79.90
82243;DHT22;71844;51.528;4.442;2024-02-21T11:32:33;10.20;79.80
82243;DHT22;71844;51.528;4.442;2024-02-21T11:35:02;10.20;79.70
82243;DHT22;71844;51.528;4.442;2024-02-21T11:37:35;10.10;79.70
82243;DHT22;71844;51.528;4.442;2024-02-21T11:40:06;10.20;79.70
82243;DHT22;71844;51.528;4.442;2024-02-21T11:42:38;10.20;79.60
82243;DHT22;71844;51.528;4.442;2024-02-21T11:45:06;10.20;79.60
82243;DHT22;71844;51.528;4.442;2024-02-21T11:47:33;10.20;79.60
82243;DHT22;71844;51.528;4.442;2024-02-21T11:50:00;10.20;79.50
82243;DHT22;71844;51.528;4.442;2024-02-21T11:52:27;10.20;79.50
82243;DHT22;71844;51.528;4.442;2024-02-21T11:54:55;10.20;79.40
82243;DHT22;71844;51.528;4.442;2024-02-21T11:57:24;10.20;79.20
82243;DHT22;71844;51.528;4.442;2024-02-21T11:59:51;10.20;79.20
82243;DHT22;71844;51.528;4.442;2024-02-21T12:02:26;10.20;79.20
82243;DHT22;71844;51.528;4.442;2024-02-21T12:04:53;10.20;79.20
82243;DHT22;71844;51.528;4.442;2024-02-21T12:07:22;10.20;79.20
82243;DHT22;71844;51.528;4.442;2024-02-21T12:09:51;10.20;79.10
82243;DHT22;71844;51.528;4.442;2024-02-21T12:12:20;10.20;79.00
82243;DHT22;71844;51.528;4.442;2024-02-21T12:14:56;10.20;78.90
82243;DHT22;71844;51.528;4.442;2024-02-21T12:17:27;10.30;79.10
82243;DHT22;71844;51.528;4.442;2024-02-21T12:19:54;10.30;78.90
82243;DHT22;71844;51.528;4.442;2024-02-21T12:22:21;10.40;78.90
82243;DHT22;71844;51.528;4.442;2024-02-21T12:24:48;10.40;78.70
82243;DHT22;71844;51.528;4.442;2024-02-21T12:27:15;10.30;78.60
82243;DHT22;71844;51.528;4.442;2024-02-21T12:29:42;10.40;78.50
82243;DHT22;71844;51.528;4.442;2024-02-21T12:32:09;10.30;78.40
82243;DHT22;71844;51.528;4.442;2024-02-21T12:34:36;10.30;78.50
82243;DHT22;71844;51.528;4.442;2024-02-21T12:37:19;10.30;78.40
82243;DHT22;71844;51.528;4.442;2024-02-21T12:39:47;10.30;78.20
82243;DHT22;71844;51.528;4.442;2024-02-21T12:42:15;10.20;78.30
82243;DHT22;71844;51.528;4.442;2024-02-21T12:44:42;10.20;78.30
82243;DHT22;71844;51.528;4.442;2024-02-21T12:47:09;10.20;78.20
82243;DHT22;71844;51.528;4.442;2024-02-21T12:49:36;10.20;77.90
82243;DHT22;71844;51.528;4.442;2024-02-21T12:52:07;10.20;77.70
82243;DHT22;71844;51.528;4.442;2024-02-21T12:54:34;10.20;77.80
82243;DHT22;71844;51.528;4.442;2024-02-21T12:57:01;10.20;77.80
82243;DHT22;71844;51.528;4.442;2024-02-21T12:59:30;10.20;77.40
82243;DHT22;71844;51.528;4.442;2024-02-21T13:01:57;10.20;77.20
82243;DHT22;71844;51.528;4.442;2024-02-21T13:04:24;10.20;77.10
82243;DHT22;71844;51.528;4.442;2024-02-21T13:06:53;10.20;76.90
82243;DHT22;71844;51.528;4.442;2024-02-21T13:09:22;10.20;77.00
82243;DHT22;71844;51.528;4.442;2024-02-21T13:11:48;10.20;77.10
82243;DHT22;71844;51.528;4.442;2024-02-21T13:14:18;10.20;76.90
82243;DHT22;71844;51.528;4.442;2024-02-21T13:16:45;10.20;76.70
82243;DHT22;71844;51.528;4.442;2024-02-21T13:19:12;10.20;76.90
82243;DHT22;71844;51.528;4.442;2024-02-21T13:21:40;10.20;76.90
82243;DHT22;71844;51.528;4.442;2024-02-21T13:24:07;10.30;76.90
82243;DHT22;71844;51.528;4.442;2024-02-21T13:26:34;10.30;76.90
82243;DHT22;71844;51.528;4.442;2024-02-21T13:29:01;10.30;76.60
82243;DHT22;71844;51.528;4.442;2024-02-21T13:31:29;10.30;76.60
82243;DHT22;71844;51.528;4.442;2024-02-21T13:33:57;10.30;76.60
82243;DHT22;71844;51.528;4.442;2024-02-21T13:36:23;10.30;76.70
82243;DHT22;71844;51.528;4.442;2024-02-21T13:38:50;10.30;76.70
82243;DHT22;71844;51.528;4.442;2024-02-21T13:41:18;10.30;76.70
82243;DHT22;71844;51.528;4.442;2024-02-21T13:43:45;10.30;76.60
82243;DHT22;71844;51.528;4.442;2024-02-21T13:46:13;10.30;76.70
82243;DHT22;71844;51.528;4.442;2024-02-21T13:48:40;10.20;76.70
82243;DHT22;71844;51.528;4.442;2024-02-21T13:51:08;10.20;76.70
82243;DHT22;71844;51.528;4.442;2024-02-21T13:53:37;10.10;76.90
82243;DHT22;71844;51.528;4.442;2024-02-21T13:56:04;10.10;77.10
82243;DHT22;71844;51.528;4.442;2024-02-21T13:58:34;10.10;77.40
82243;DHT22;71844;51.528;4.442;2024-02-21T14:01:05;10.00;77.50
82243;DHT22;71844;51.528;4.442;2024-02-21T14:03:32;10.00;77.80
82243;DHT22;71844;51.528;4.442;2024-02-21T14:06:02;9.90;78.10
82243;DHT22;71844;51.528;4.442;2024-02-21T14:08:30;9.90;78.40
82243;DHT22;71844;51.528;4.442;2024-02-21T14:10:58;9.80;78.80
82243;DHT22;71844;51.528;4.442;2024-02-21T14:13:26;9.80;78.80
82243;DHT22;71844;51.528;4.442;2024-02-21T14:15:53;9.70;79.20
82243;DHT22;71844;51.528;4.442;2024-02-21T14:18:20;9.70;79.60
82243;DHT22;71844;51.528;4.442;2024-02-21T14:20:48;9.60;80.00
82243;DHT22;71844;51.528;4.442;2024-02-21T14:23:15;9.60;80.00
82243;DHT22;71844;51.528;4.442;2024-02-21T14:25:41;9.60;80.80
82243;DHT22;71844;51.528;4.442;2024-02-21T14:28:09;9.50;81.20
82243;DHT22;71844;51.528;4.442;2024-02-21T14:30:36;9.50;81.20
82243;DHT22;71844;51.528;4.442;2024-02-21T14:33:03;9.50;81.30
82243;DHT22;71844;51.528;4.442;2024-02-21T14:35:30;9.40;81.70
82243;DHT22;71844;51.528;4.442;2024-02-21T14:37:57;9.40;82.20
82243;DHT22;71844;51.528;4.442;2024-02-21T14:40:24;9.40;82.30
82243;DHT22;71844;51.528;4.442;2024-02-21T14:42:51;9.40;82.20
82243;DHT22;71844;51.528;4.442;2024-02-21T14:45:19;9.40;82.30
82243;DHT22;71844;51.528;4.442;2024-02-21T14:47:49;9.40;83.00
82243;DHT22;71844;51.528;4.442;2024-02-21T14:50:16;9.40;82.90
82243;DHT22;71844;51.528;4.442;2024-02-21T14:52:43;9.40;83.50
82243;DHT22;71844;51.528;4.442;2024-02-21T14:55:13;9.30;83.60
82243;DHT22;71844;51.528;4.442;2024-02-21T14:57:40;9.30;83.30
82243;DHT22;71844;51.528;4.442;2024-02-21T15:00:09;9.30;83.70
82243;DHT22;71844;51.528;4.442;2024-02-21T15:02:38;9.30;83.90
82243;DHT22;71844;51.528;4.442;2024-02-21T15:05:05;9.30;84.00
82243;DHT22;71844;51.528;4.442;2024-02-21T15:07:33;9.20;84.20
82243;DHT22;71844;51.528;4.442;2024-02-21T15:10:00;9.20;84.40
82243;DHT22;71844;51.528;4.442;2024-02-21T15:12:27;9.20;84.90
82243;DHT22;71844;51.528;4.442;2024-02-21T15:14:54;9.20;84.70
82243;DHT22;71844;51.528;4.442;2024-02-21T15:17:21;9.20;84.70
82243;DHT22;71844;51.528;4.442;2024-02-21T15:19:48;9.20;84.90
82243;DHT22;71844;51.528;4.442;2024-02-21T15:22:16;9.20;85.10
82243;DHT22;71844;51.528;4.442;2024-02-21T15:24:44;9.20;85.20
82243;DHT22;71844;51.528;4.442;2024-02-21T15:27:15;9.20;85.30
82243;DHT22;71844;51.528;4.442;2024-02-21T15:29:42;9.10;86.60
82243;DHT22;71844;51.528;4.442;2024-02-21T15:34:44;9.10;85.50
82243;DHT22;71844;51.528;4.442;2024-02-21T15:37:12;9.10;85.70
82243;DHT22;71844;51.528;4.442;2024-02-21T15:39:42;9.10;85.70
82243;DHT22;71844;51.528;4.442;2024-02-21T15:42:10;9.10;86.30
82243;DHT22;71844;51.528;4.442;2024-02-21T15:44:37;9.10;86.00
82243;DHT22;71844;51.528;4.442;2024-02-21T15:47:05;9.10;86.70
82243;DHT22;71844;51.528;4.442;2024-02-21T15:49:32;9.10;86.30
82243;DHT22;71844;51.528;4.442;2024-02-21T15:51:59;9.00;86.80
82243;DHT22;71844;51.528;4.442;2024-02-21T15:54:26;9.10;86.80
82243;DHT22;71844;51.528;4.442;2024-02-21T15:56:54;9.00;86.90
82243;DHT22;71844;51.528;4.442;2024-02-21T15:59:24;9.00;87.10
82243;DHT22;71844;51.528;4.442;2024-02-21T16:01:50;9.00;87.40
82243;DHT22;71844;51.528;4.442;2024-02-21T16:04:17;9.00;87.40
82243;DHT22;71844;51.528;4.442;2024-02-21T16:06:45;9.00;87.20